sensor_id;sensor_type;location;lat;lon;timestamp;P1;durP1;ratioP1;P2;durP2;ratioP2
79592;SDS011;69074;45.164;9.704;2023-06-14T00:00:24;13.3;;;11.6;;
79592;SDS011;69074;45.164;9.704;2023-06-14T00:02:49;13.3;;;11.6;;
79592;SDS011;69074;45.164;9.704;2023-06-14T00:05:14;13.3;;;11.6;;
79592;SDS011;69074;45.164;9.704;2023-06-14T00:07:39;13.3;;;9.5;;
79592;SDS011;69074;45.164;9.704;2023-06-14T00:10:04;13.3;;;9.5;;
79592;SDS011;69074;45.164;9.704;2023-06-14T00:12:29;13.3;;;9.5;;
79592;SDS011;69074;45.164;9.704;2023-06-14T00:14:54;13.3;;;9.5;;
79592;SDS011;69074;45.164;9.704;2023-06-14T00:17:19;13.3;;;9.5;;
79592;SDS011;69074;45.164;9.704;2023-06-14T00:19:44;13.3;;;9.5;;
79592;SDS011;69074;45.164;9.704;2023-06-14T00:22:09;8.6;;;7.7;;
79592;SDS011;69074;45.164;9.704;2023-06-14T00:24:34;8.6;;;7.7;;
79592;SDS011;69074;45.164;9.704;2023-06-14T00:26:59;8.6;;;7.7;;
79592;SDS011;69074;45.164;9.704;2023-06-14T00:29:24;8.6;;;7.7;;
79592;SDS011;69074;45.164;9.704;2023-06-14T00:31:49;8.6;;;7.7;;
79592;SDS011;69074;45.164;9.704;2023-06-14T00:34:14;8.6;;;7.7;;
79592;SDS011;69074;45.164;9.704;2023-06-14T00:36:39;7.7;;;6.7;;
79592;SDS011;69074;45.164;9.704;2023-06-14T00:39:04;7.7;;;6.7;;
79592;SDS011;69074;45.164;9.704;2023-06-14T00:41:29;7.7;;;6.7;;
79592;SDS011;69074;45.164;9.704;2023-06-14T00:43:54;7.7;;;6.7;;
79592;SDS011;69074;45.164;9.704;2023-06-14T00:46:19;7.7;;;6.7;;
79592;SDS011;69074;45.164;9.704;2023-06-14T00:48:44;7.7;;;6.7;;
79592;SDS011;69074;45.164;9.704;2023-06-14T00:51:09;8.4;;;7.6;;
79592;SDS011;69074;45.164;9.704;2023-06-14T00:53:34;8.4;;;7.6;;
79592;SDS011;69074;45.164;9.704;2023-06-14T00:56:00;8.4;;;7.6;;
79592;SDS011;69074;45.164;9.704;2023-06-14T00:58:24;8.4;;;7.6;;
79592;SDS011;69074;45.164;9.704;2023-06-14T01:00:49;8.4;;;7.6;;
79592;SDS011;69074;45.164;9.704;2023-06-14T01:03:14;8.4;;;7.6;;
79592;SDS011;69074;45.164;9.704;2023-06-14T01:05:39;8.4;;;7.6;;
79592;SDS011;69074;45.164;9.704;2023-06-14T01:08:07;10.2;;;7.7;;
79592;SDS011;69074;45.164;9.704;2023-06-14T01:10:31;10.2;;;7.7;;
79592;SDS011;69074;45.164;9.704;2023-06-14T01:12:56;10.2;;;7.7;;
79592;SDS011;69074;45.164;9.704;2023-06-14T01:15:19;10.2;;;7.7;;
79592;SDS011;69074;45.164;9.704;2023-06-14T01:17:44;10.2;;;7.7;;
79592;SDS011;69074;45.164;9.704;2023-06-14T01:20:10;10.2;;;7.7;;
79592;SDS011;69074;45.164;9.704;2023-06-14T01:22:34;8.8;;;7.9;;
79592;SDS011;69074;45.164;9.704;2023-06-14T01:24:59;8.8;;;7.9;;
79592;SDS011;69074;45.164;9.704;2023-06-14T01:27:24;8.8;;;7.9;;
79592;SDS011;69074;45.164;9.704;2023-06-14T01:29:49;8.8;;;7.9;;
79592;SDS011;69074;45.164;9.704;2023-06-14T01:32:14;8.8;;;7.9;;
79592;SDS011;69074;45.164;9.704;2023-06-14T01:34:39;8.8;;;7.9;;
79592;SDS011;69074;45.164;9.704;2023-06-14T01:37:04;9.4;;;7.7;;
79592;SDS011;69074;45.164;9.704;2023-06-14T01:39:29;9.4;;;7.7;;
79592;SDS011;69074;45.164;9.704;2023-06-14T01:41:54;9.4;;;7.7;;
79592;SDS011;69074;45.164;9.704;2023-06-14T01:44:19;9.4;;;7.7;;
79592;SDS011;69074;45.164;9.704;2023-06-14T01:46:44;9.4;;;7.7;;
79592;SDS011;69074;45.164;9.704;2023-06-14T01:49:10;9.4;;;7.7;;
79592;SDS011;69074;45.164;9.704;2023-06-14T01:51:34;11.0;;;8.6;;
79592;SDS011;69074;45.164;9.704;2023-06-14T01:53:59;11.0;;;8.6;;
79592;SDS011;69074;45.164;9.704;2023-06-14T01:56:24;11.0;;;8.6;;
79592;SDS011;69074;45.164;9.704;2023-06-14T01:58:49;11.0;;;8.6;;
79592;SDS011;69074;45.164;9.704;2023-06-14T02:01:14;11.0;;;8.6;;
79592;SDS011;69074;45.164;9.704;2023-06-14T02:03:39;11.0;;;8.6;;
79592;SDS011;69074;45.164;9.704;2023-06-14T02:06:04;11.0;;;8.6;;
79592;SDS011;69074;45.164;9.704;2023-06-14T02:08:29;8.4;;;7.0;;
79592;SDS011;69074;45.164;9.704;2023-06-14T02:10:54;8.4;;;7.0;;
79592;SDS011;69074;45.164;9.704;2023-06-14T02:13:19;8.4;;;7.0;;
79592;SDS011;69074;45.164;9.704;2023-06-14T02:15:44;8.4;;;7.0;;
79592;SDS011;69074;45.164;9.704;2023-06-14T02:18:09;8.4;;;7.0;;
79592;SDS011;69074;45.164;9.704;2023-06-14T02:20:34;8.4;;;7.0;;
79592;SDS011;69074;45.164;9.704;2023-06-14T02:22:59;10.0;;;9.0;;
79592;SDS011;69074;45.164;9.704;2023-06-14T02:25:24;10.0;;;9.0;;
79592;SDS011;69074;45.164;9.704;2023-06-14T02:27:49;10.0;;;9.0;;
79592;SDS011;69074;45.164;9.704;2023-06-14T02:30:14;10.0;;;9.0;;
79592;SDS011;69074;45.164;9.704;2023-06-14T02:32:39;10.0;;;9.0;;
79592;SDS011;69074;45.164;9.704;2023-06-14T02:35:05;10.0;;;9.0;;
79592;SDS011;69074;45.164;9.704;2023-06-14T02:37:29;11.3;;;10.1;;
79592;SDS011;69074;45.164;9.704;2023-06-14T02:39:55;11.3;;;10.1;;
79592;SDS011;69074;45.164;9.704;2023-06-14T02:42:19;11.3;;;10.1;;
79592;SDS011;69074;45.164;9.704;2023-06-14T02:44:44;11.3;;;10.1;;
79592;SDS011;69074;45.164;9.704;2023-06-14T02:47:09;11.3;;;10.1;;
79592;SDS011;69074;45.164;9.704;2023-06-14T02:49:34;11.3;;;10.1;;
79592;SDS011;69074;45.164;9.704;2023-06-14T02:51:59;15.3;;;13.5;;
79592;SDS011;69074;45.164;9.704;2023-06-14T02:54:24;15.3;;;13.5;;
79592;SDS011;69074;45.164;9.704;2023-06-14T02:56:49;15.3;;;13.5;;
79592;SDS011;69074;45.164;9.704;2023-06-14T02:59:14;15.3;;;13.5;;
79592;SDS011;69074;45.164;9.704;2023-06-14T03:04:04;15.3;;;13.5;;
79592;SDS011;69074;45.164;9.704;2023-06-14T03:06:29;18.5;;;15.8;;
79592;SDS011;69074;45.164;9.704;2023-06-14T03:08:54;18.5;;;15.8;;
79592;SDS011;69074;45.164;9.704;2023-06-14T03:11:19;18.5;;;15.8;;
79592;SDS011;69074;45.164;9.704;2023-06-14T03:13:45;18.5;;;15.8;;
79592;SDS011;69074;45.164;9.704;2023-06-14T03:16:09;18.5;;;15.8;;
79592;SDS011;69074;45.164;9.704;2023-06-14T03:18:34;18.5;;;15.8;;
79592;SDS011;69074;45.164;9.704;2023-06-14T03:20:59;18.5;;;15.8;;
79592;SDS011;69074;45.164;9.704;2023-06-14T03:23:24;18.0;;;15.1;;
79592;SDS011;69074;45.164;9.704;2023-06-14T03:25:49;18.0;;;15.1;;
79592;SDS011;69074;45.164;9.704;2023-06-14T03:28:14;18.0;;;15.1;;
79592;SDS011;69074;45.164;9.704;2023-06-14T03:30:39;18.0;;;15.1;;
79592;SDS011;69074;45.164;9.704;2023-06-14T03:33:04;18.0;;;15.1;;
79592;SDS011;69074;45.164;9.704;2023-06-14T03:35:29;18.0;;;15.1;;
79592;SDS011;69074;45.164;9.704;2023-06-14T03:37:55;11.6;;;10.4;;
79592;SDS011;69074;45.164;9.704;2023-06-14T03:40:20;11.6;;;10.4;;
79592;SDS011;69074;45.164;9.704;2023-06-14T03:42:44;11.6;;;10.4;;
79592;SDS011;69074;45.164;9.704;2023-06-14T03:45:09;11.6;;;10.4;;
79592;SDS011;69074;45.164;9.704;2023-06-14T03:47:34;11.6;;;10.4;;
79592;SDS011;69074;45.164;9.704;2023-06-14T03:50:00;11.6;;;10.4;;
79592;SDS011;69074;45.164;9.704;2023-06-14T03:52:24;9.7;;;8.7;;
79592;SDS011;69074;45.164;9.704;2023-06-14T03:54:50;9.7;;;8.7;;
79592;SDS011;69074;45.164;9.704;2023-06-14T03:57:15;9.7;;;8.7;;
79592;SDS011;69074;45.164;9.704;2023-06-14T03:59:39;9.7;;;8.7;;
79592;SDS011;69074;45.164;9.704;2023-06-14T04:02:04;9.7;;;8.7;;
79592;SDS011;69074;45.164;9.704;2023-06-14T04:04:29;9.7;;;8.7;;
79592;SDS011;69074;45.164;9.704;2023-06-14T04:06:55;7.9;;;6.9;;
79592;SDS011;69074;45.164;9.704;2023-06-14T04:09:19;7.9;;;6.9;;
79592;SDS011;69074;45.164;9.704;2023-06-14T04:11:45;7.9;;;6.9;;
79592;SDS011;69074;45.164;9.704;2023-06-14T04:14:09;7.9;;;6.9;;
79592;SDS011;69074;45.164;9.704;2023-06-14T04:16:35;7.9;;;6.9;;
79592;SDS011;69074;45.164;9.704;2023-06-14T04:19:00;7.9;;;6.9;;
79592;SDS011;69074;45.164;9.704;2023-06-14T04:21:24;7.6;;;6.6;;
79592;SDS011;69074;45.164;9.704;2023-06-14T04:23:49;7.6;;;6.6;;
79592;SDS011;69074;45.164;9.704;2023-06-14T04:26:14;7.6;;;6.6;;
79592;SDS011;69074;45.164;9.704;2023-06-14T04:28:40;7.6;;;6.6;;
79592;SDS011;69074;45.164;9.704;2023-06-14T04:31:05;7.6;;;6.6;;
79592;SDS011;69074;45.164;9.704;2023-06-14T04:33:29;7.6;;;6.6;;
79592;SDS011;69074;45.164;9.704;2023-06-14T04:35:54;7.6;;;6.6;;
79592;SDS011;69074;45.164;9.704;2023-06-14T04:38:20;8.6;;;6.6;;
79592;SDS011;69074;45.164;9.704;2023-06-14T04:40:45;8.6;;;6.6;;
79592;SDS011;69074;45.164;9.704;2023-06-14T04:43:10;8.6;;;6.6;;
79592;SDS011;69074;45.164;9.704;2023-06-14T04:45:35;8.6;;;6.6;;
79592;SDS011;69074;45.164;9.704;2023-06-14T04:48:00;8.6;;;6.6;;
79592;SDS011;69074;45.164;9.704;2023-06-14T04:50:25;8.6;;;6.6;;
79592;SDS011;69074;45.164;9.704;2023-06-14T04:52:50;8.1;;;6.8;;
79592;SDS011;69074;45.164;9.704;2023-06-14T04:55:15;8.1;;;6.8;;
79592;SDS011;69074;45.164;9.704;2023-06-14T04:57:40;8.1;;;6.8;;
79592;SDS011;69074;45.164;9.704;2023-06-14T05:00:05;8.1;;;6.8;;
79592;SDS011;69074;45.164;9.704;2023-06-14T05:02:30;8.1;;;6.8;;
79592;SDS011;69074;45.164;9.704;2023-06-14T05:04:55;8.1;;;6.8;;
79592;SDS011;69074;45.164;9.704;2023-06-14T05:07:20;8.2;;;7.3;;
79592;SDS011;69074;45.164;9.704;2023-06-14T05:09:45;8.2;;;7.3;;
79592;SDS011;69074;45.164;9.704;2023-06-14T05:12:10;8.2;;;7.3;;
79592;SDS011;69074;45.164;9.704;2023-06-14T05:14:35;8.2;;;7.3;;
79592;SDS011;69074;45.164;9.704;2023-06-14T05:17:00;8.2;;;7.3;;
79592;SDS011;69074;45.164;9.704;2023-06-14T05:19:25;8.2;;;7.3;;
79592;SDS011;69074;45.164;9.704;2023-06-14T05:21:50;13.0;;;8.4;;
79592;SDS011;69074;45.164;9.704;2023-06-14T05:24:15;13.0;;;8.4;;
79592;SDS011;69074;45.164;9.704;2023-06-14T05:26:40;13.0;;;8.4;;
79592;SDS011;69074;45.164;9.704;2023-06-14T05:29:05;13.0;;;8.4;;
79592;SDS011;69074;45.164;9.704;2023-06-14T05:31:30;13.0;;;8.4;;
79592;SDS011;69074;45.164;9.704;2023-06-14T05:33:55;13.0;;;8.4;;
79592;SDS011;69074;45.164;9.704;2023-06-14T05:36:20;13.3;;;7.4;;
79592;SDS011;69074;45.164;9.704;2023-06-14T05:38:45;13.3;;;7.4;;
79592;SDS011;69074;45.164;9.704;2023-06-14T05:41:10;13.3;;;7.4;;
79592;SDS011;69074;45.164;9.704;2023-06-14T05:43:35;13.3;;;7.4;;
79592;SDS011;69074;45.164;9.704;2023-06-14T05:46:00;13.3;;;7.4;;
79592;SDS011;69074;45.164;9.704;2023-06-14T05:48:25;13.3;;;7.4;;
79592;SDS011;69074;45.164;9.704;2023-06-14T05:50:50;13.3;;;7.4;;
79592;SDS011;69074;45.164;9.704;2023-06-14T05:53:15;9.8;;;7.3;;
79592;SDS011;69074;45.164;9.704;2023-06-14T05:55:40;9.8;;;7.3;;
79592;SDS011;69074;45.164;9.704;2023-06-14T05:58:05;9.8;;;7.3;;
79592;SDS011;69074;45.164;9.704;2023-06-14T06:00:30;9.8;;;7.3;;
79592;SDS011;69074;45.164;9.704;2023-06-14T06:02:55;9.8;;;7.3;;
79592;SDS011;69074;45.164;9.704;2023-06-14T06:05:20;9.8;;;7.3;;
79592;SDS011;69074;45.164;9.704;2023-06-14T06:07:45;9.9;;;7.8;;
79592;SDS011;69074;45.164;9.704;2023-06-14T06:10:10;9.9;;;7.8;;
79592;SDS011;69074;45.164;9.704;2023-06-14T06:12:35;9.9;;;7.8;;
79592;SDS011;69074;45.164;9.704;2023-06-14T06:15:00;9.9;;;7.8;;
79592;SDS011;69074;45.164;9.704;2023-06-14T06:17:25;9.9;;;7.8;;
79592;SDS011;69074;45.164;9.704;2023-06-14T06:19:50;9.9;;;7.8;;
79592;SDS011;69074;45.164;9.704;2023-06-14T06:22:15;12.3;;;8.5;;
79592;SDS011;69074;45.164;9.704;2023-06-14T06:24:40;12.3;;;8.5;;
79592;SDS011;69074;45.164;9.704;2023-06-14T06:27:05;12.3;;;8.5;;
79592;SDS011;69074;45.164;9.704;2023-06-14T06:29:30;12.3;;;8.5;;
79592;SDS011;69074;45.164;9.704;2023-06-14T06:31:55;12.3;;;8.5;;
79592;SDS011;69074;45.164;9.704;2023-06-14T06:34:20;12.3;;;8.5;;
79592;SDS011;69074;45.164;9.704;2023-06-14T06:36:45;11.9;;;10.2;;
79592;SDS011;69074;45.164;9.704;2023-06-14T06:39:10;11.9;;;10.2;;
79592;SDS011;69074;45.164;9.704;2023-06-14T06:41:35;11.9;;;10.2;;
79592;SDS011;69074;45.164;9.704;2023-06-14T06:44:00;11.9;;;10.2;;
79592;SDS011;69074;45.164;9.704;2023-06-14T06:46:25;11.9;;;10.2;;
79592;SDS011;69074;45.164;9.704;2023-06-14T06:48:50;11.9;;;10.2;;
79592;SDS011;69074;45.164;9.704;2023-06-14T06:51:15;14.2;;;12.7;;
79592;SDS011;69074;45.164;9.704;2023-06-14T06:53:41;14.2;;;12.7;;
79592;SDS011;69074;45.164;9.704;2023-06-14T06:56:05;14.2;;;12.7;;
79592;SDS011;69074;45.164;9.704;2023-06-14T06:58:30;14.2;;;12.7;;
79592;SDS011;69074;45.164;9.704;2023-06-14T07:00:55;14.2;;;12.7;;
79592;SDS011;69074;45.164;9.704;2023-06-14T07:03:20;14.2;;;12.7;;
79592;SDS011;69074;45.164;9.704;2023-06-14T07:05:45;14.2;;;12.7;;
79592;SDS011;69074;45.164;9.704;2023-06-14T07:08:10;16.0;;;13.4;;
79592;SDS011;69074;45.164;9.704;2023-06-14T07:10:35;16.0;;;13.4;;
79592;SDS011;69074;45.164;9.704;2023-06-14T07:13:00;16.0;;;13.4;;
79592;SDS011;69074;45.164;9.704;2023-06-14T07:15:25;16.0;;;13.4;;
79592;SDS011;69074;45.164;9.704;2023-06-14T07:17:50;16.0;;;13.4;;
79592;SDS011;69074;45.164;9.704;2023-06-14T07:20:15;16.0;;;13.4;;
79592;SDS011;69074;45.164;9.704;2023-06-14T07:22:40;16.1;;;13.8;;
79592;SDS011;69074;45.164;9.704;2023-06-14T07:25:05;16.1;;;13.8;;
79592;SDS011;69074;45.164;9.704;2023-06-14T07:27:30;16.1;;;13.8;;
79592;SDS011;69074;45.164;9.704;2023-06-14T07:29:55;16.1;;;13.8;;
79592;SDS011;69074;45.164;9.704;2023-06-14T07:32:20;16.1;;;13.8;;
79592;SDS011;69074;45.164;9.704;2023-06-14T07:34:45;16.1;;;13.8;;
79592;SDS011;69074;45.164;9.704;2023-06-14T07:37:10;20.3;;;17.7;;
79592;SDS011;69074;45.164;9.704;2023-06-14T07:39:35;20.3;;;17.7;;
79592;SDS011;69074;45.164;9.704;2023-06-14T07:42:00;20.3;;;17.7;;
79592;SDS011;69074;45.164;9.704;2023-06-14T07:44:27;20.3;;;17.7;;
79592;SDS011;69074;45.164;9.704;2023-06-14T07:46:50;20.3;;;17.7;;
79592;SDS011;69074;45.164;9.704;2023-06-14T07:49:15;20.3;;;17.7;;
79592;SDS011;69074;45.164;9.704;2023-06-14T07:51:40;21.0;;;18.8;;
79592;SDS011;69074;45.164;9.704;2023-06-14T07:54:05;21.0;;;18.8;;
79592;SDS011;69074;45.164;9.704;2023-06-14T07:56:30;21.0;;;18.8;;
79592;SDS011;69074;45.164;9.704;2023-06-14T07:58:55;21.0;;;18.8;;
79592;SDS011;69074;45.164;9.704;2023-06-14T08:01:20;21.0;;;18.8;;
79592;SDS011;69074;45.164;9.704;2023-06-14T08:03:45;21.0;;;18.8;;
79592;SDS011;69074;45.164;9.704;2023-06-14T08:06:10;20.1;;;17.9;;
79592;SDS011;69074;45.164;9.704;2023-06-14T08:08:35;20.1;;;17.9;;
79592;SDS011;69074;45.164;9.704;2023-06-14T08:11:00;20.1;;;17.9;;
79592;SDS011;69074;45.164;9.704;2023-06-14T08:13:25;20.1;;;17.9;;
79592;SDS011;69074;45.164;9.704;2023-06-14T08:15:50;20.1;;;17.9;;
79592;SDS011;69074;45.164;9.704;2023-06-14T08:18:15;20.1;;;17.9;;
79592;SDS011;69074;45.164;9.704;2023-06-14T08:20:40;20.1;;;17.9;;
79592;SDS011;69074;45.164;9.704;2023-06-14T08:23:05;21.3;;;18.5;;
79592;SDS011;69074;45.164;9.704;2023-06-14T08:25:30;21.3;;;18.5;;
79592;SDS011;69074;45.164;9.704;2023-06-14T08:27:55;21.3;;;18.5;;
79592;SDS011;69074;45.164;9.704;2023-06-14T08:30:20;21.3;;;18.5;;
79592;SDS011;69074;45.164;9.704;2023-06-14T08:32:45;21.3;;;18.5;;
79592;SDS011;69074;45.164;9.704;2023-06-14T08:35:10;21.3;;;18.5;;
79592;SDS011;69074;45.164;9.704;2023-06-14T08:37:37;20.3;;;18.1;;
79592;SDS011;69074;45.164;9.704;2023-06-14T08:40:00;20.3;;;18.1;;
79592;SDS011;69074;45.164;9.704;2023-06-14T08:42:25;20.3;;;18.1;;
79592;SDS011;69074;45.164;9.704;2023-06-14T08:44:50;20.3;;;18.1;;
79592;SDS011;69074;45.164;9.704;2023-06-14T08:47:15;20.3;;;18.1;;
79592;SDS011;69074;45.164;9.704;2023-06-14T08:49:40;20.3;;;18.1;;
79592;SDS011;69074;45.164;9.704;2023-06-14T08:52:05;24.0;;;19.8;;
79592;SDS011;69074;45.164;9.704;2023-06-14T08:54:30;24.0;;;19.8;;
79592;SDS011;69074;45.164;9.704;2023-06-14T08:56:55;24.0;;;19.8;;
79592;SDS011;69074;45.164;9.704;2023-06-14T08:59:20;24.0;;;19.8;;
79592;SDS011;69074;45.164;9.704;2023-06-14T09:01:45;24.0;;;19.8;;
79592;SDS011;69074;45.164;9.704;2023-06-14T09:04:10;24.0;;;19.8;;
79592;SDS011;69074;45.164;9.704;2023-06-14T09:06:35;21.1;;;18.2;;
79592;SDS011;69074;45.164;9.704;2023-06-14T09:09:00;21.1;;;18.2;;
79592;SDS011;69074;45.164;9.704;2023-06-14T09:11:25;21.1;;;18.2;;
79592;SDS011;69074;45.164;9.704;2023-06-14T09:13:50;21.1;;;18.2;;
79592;SDS011;69074;45.164;9.704;2023-06-14T09:16:15;21.1;;;18.2;;
79592;SDS011;69074;45.164;9.704;2023-06-14T09:18:41;21.1;;;18.2;;
79592;SDS011;69074;45.164;9.704;2023-06-14T09:21:05;21.1;;;18.2;;
79592;SDS011;69074;45.164;9.704;2023-06-14T09:23:32;21.3;;;17.8;;
79592;SDS011;69074;45.164;9.704;2023-06-14T09:25:55;21.3;;;17.8;;
79592;SDS011;69074;45.164;9.704;2023-06-14T09:28:23;21.3;;;17.8;;
79592;SDS011;69074;45.164;9.704;2023-06-14T09:30:45;21.3;;;17.8;;
79592;SDS011;69074;45.164;9.704;2023-06-14T09:33:10;21.3;;;17.8;;
79592;SDS011;69074;45.164;9.704;2023-06-14T09:35:35;21.3;;;17.8;;
79592;SDS011;69074;45.164;9.704;2023-06-14T09:38:00;18.6;;;15.0;;
79592;SDS011;69074;45.164;9.704;2023-06-14T09:40:26;18.6;;;15.0;;
79592;SDS011;69074;45.164;9.704;2023-06-14T09:42:50;18.6;;;15.0;;
79592;SDS011;69074;45.164;9.704;2023-06-14T09:45:15;18.6;;;15.0;;
79592;SDS011;69074;45.164;9.704;2023-06-14T09:47:40;18.6;;;15.0;;
79592;SDS011;69074;45.164;9.704;2023-06-14T09:50:06;18.6;;;15.0;;
79592;SDS011;69074;45.164;9.704;2023-06-14T09:52:30;17.0;;;13.9;;
79592;SDS011;69074;45.164;9.704;2023-06-14T09:54:55;17.0;;;13.9;;
79592;SDS011;69074;45.164;9.704;2023-06-14T09:57:21;17.0;;;13.9;;
79592;SDS011;69074;45.164;9.704;2023-06-14T09:59:46;17.0;;;13.9;;
79592;SDS011;69074;45.164;9.704;2023-06-14T10:02:11;17.0;;;13.9;;
79592;SDS011;69074;45.164;9.704;2023-06-14T10:04:35;17.0;;;13.9;;
79592;SDS011;69074;45.164;9.704;2023-06-14T10:07:00;13.0;;;10.6;;
79592;SDS011;69074;45.164;9.704;2023-06-14T10:09:25;13.0;;;10.6;;
79592;SDS011;69074;45.164;9.704;2023-06-14T10:11:50;13.0;;;10.6;;
79592;SDS011;69074;45.164;9.704;2023-06-14T10:14:15;13.0;;;10.6;;
79592;SDS011;69074;45.164;9.704;2023-06-14T10:16:42;13.0;;;10.6;;
79592;SDS011;69074;45.164;9.704;2023-06-14T10:19:06;13.0;;;10.6;;
79592;SDS011;69074;45.164;9.704;2023-06-14T10:21:32;14.8;;;11.4;;
79592;SDS011;69074;45.164;9.704;2023-06-14T10:23:56;14.8;;;11.4;;
79592;SDS011;69074;45.164;9.704;2023-06-14T10:26:21;14.8;;;11.4;;
79592;SDS011;69074;45.164;9.704;2023-06-14T10:28:50;14.8;;;11.4;;
79592;SDS011;69074;45.164;9.704;2023-06-14T10:31:11;14.8;;;11.4;;
79592;SDS011;69074;45.164;9.704;2023-06-14T10:33:36;14.8;;;11.4;;
79592;SDS011;69074;45.164;9.704;2023-06-14T10:36:08;14.8;;;11.4;;
79592;SDS011;69074;45.164;9.704;2023-06-14T10:38:29;26.1;;;19.1;;
79592;SDS011;69074;45.164;9.704;2023-06-14T10:40:52;26.1;;;19.1;;
79592;SDS011;69074;45.164;9.704;2023-06-14T10:43:20;26.1;;;19.1;;
79592;SDS011;69074;45.164;9.704;2023-06-14T10:45:55;26.1;;;19.1;;
79592;SDS011;69074;45.164;9.704;2023-06-14T10:48:05;26.1;;;19.1;;
79592;SDS011;69074;45.164;9.704;2023-06-14T10:50:30;26.1;;;19.1;;
79592;SDS011;69074;45.164;9.704;2023-06-14T10:52:55;24.3;;;18.6;;
79592;SDS011;69074;45.164;9.704;2023-06-14T10:55:20;24.3;;;18.6;;
79592;SDS011;69074;45.164;9.704;2023-06-14T10:57:46;24.3;;;18.6;;
79592;SDS011;69074;45.164;9.704;2023-06-14T11:00:11;24.3;;;18.6;;
79592;SDS011;69074;45.164;9.704;2023-06-14T11:02:43;24.3;;;18.6;;
79592;SDS011;69074;45.164;9.704;2023-06-14T11:05:02;24.3;;;18.6;;
79592;SDS011;69074;45.164;9.704;2023-06-14T11:07:40;30.2;;;23.5;;
79592;SDS011;69074;45.164;9.704;2023-06-14T11:09:52;30.2;;;23.5;;
79592;SDS011;69074;45.164;9.704;2023-06-14T11:12:16;30.2;;;23.5;;
79592;SDS011;69074;45.164;9.704;2023-06-14T11:14:41;30.2;;;23.5;;
79592;SDS011;69074;45.164;9.704;2023-06-14T11:17:06;30.2;;;23.5;;
79592;SDS011;69074;45.164;9.704;2023-06-14T11:19:31;30.2;;;23.5;;
79592;SDS011;69074;45.164;9.704;2023-06-14T11:21:56;18.3;;;15.1;;
79592;SDS011;69074;45.164;9.704;2023-06-14T11:24:21;18.3;;;15.1;;
79592;SDS011;69074;45.164;9.704;2023-06-14T11:26:46;18.3;;;15.1;;
79592;SDS011;69074;45.164;9.704;2023-06-14T11:29:11;18.3;;;15.1;;
79592;SDS011;69074;45.164;9.704;2023-06-14T11:31:36;18.3;;;15.1;;
79592;SDS011;69074;45.164;9.704;2023-06-14T11:34:01;18.3;;;15.1;;
79592;SDS011;69074;45.164;9.704;2023-06-14T11:36:26;37.8;;;28.5;;
79592;SDS011;69074;45.164;9.704;2023-06-14T11:38:57;37.8;;;28.5;;
79592;SDS011;69074;45.164;9.704;2023-06-14T11:41:16;37.8;;;28.5;;
79592;SDS011;69074;45.164;9.704;2023-06-14T11:43:41;37.8;;;28.5;;
79592;SDS011;69074;45.164;9.704;2023-06-14T11:46:11;37.8;;;28.5;;
79592;SDS011;69074;45.164;9.704;2023-06-14T11:48:38;37.8;;;28.5;;
79592;SDS011;69074;45.164;9.704;2023-06-14T11:50:56;37.8;;;28.5;;
79592;SDS011;69074;45.164;9.704;2023-06-14T11:53:21;35.3;;;28.0;;
79592;SDS011;69074;45.164;9.704;2023-06-14T11:55:46;35.3;;;28.0;;
79592;SDS011;69074;45.164;9.704;2023-06-14T11:58:11;35.3;;;28.0;;
79592;SDS011;69074;45.164;9.704;2023-06-14T12:00:36;35.3;;;28.0;;
79592;SDS011;69074;45.164;9.704;2023-06-14T12:03:01;35.3;;;28.0;;
79592;SDS011;69074;45.164;9.704;2023-06-14T12:05:27;35.3;;;28.0;;
79592;SDS011;69074;45.164;9.704;2023-06-14T12:07:57;25.4;;;20.5;;
79592;SDS011;69074;45.164;9.704;2023-06-14T12:10:16;25.4;;;20.5;;
79592;SDS011;69074;45.164;9.704;2023-06-14T12:12:41;25.4;;;20.5;;
79592;SDS011;69074;45.164;9.704;2023-06-14T12:15:07;25.4;;;20.5;;
79592;SDS011;69074;45.164;9.704;2023-06-14T12:17:31;25.4;;;20.5;;
79592;SDS011;69074;45.164;9.704;2023-06-14T12:19:56;25.4;;;20.5;;
79592;SDS011;69074;45.164;9.704;2023-06-14T12:22:21;17.4;;;12.8;;
79592;SDS011;69074;45.164;9.704;2023-06-14T12:24:46;17.4;;;12.8;;
79592;SDS011;69074;45.164;9.704;2023-06-14T12:27:11;17.4;;;12.8;;
79592;SDS011;69074;45.164;9.704;2023-06-14T12:29:36;17.4;;;12.8;;
79592;SDS011;69074;45.164;9.704;2023-06-14T12:32:01;17.4;;;12.8;;
79592;SDS011;69074;45.164;9.704;2023-06-14T12:34:26;17.4;;;12.8;;
79592;SDS011;69074;45.164;9.704;2023-06-14T12:36:51;17.0;;;13.2;;
79592;SDS011;69074;45.164;9.704;2023-06-14T12:39:16;17.0;;;13.2;;
79592;SDS011;69074;45.164;9.704;2023-06-14T12:41:41;17.0;;;13.2;;
79592;SDS011;69074;45.164;9.704;2023-06-14T12:44:06;17.0;;;13.2;;
79592;SDS011;69074;45.164;9.704;2023-06-14T12:46:31;17.0;;;13.2;;
79592;SDS011;69074;45.164;9.704;2023-06-14T12:48:56;17.0;;;13.2;;
79592;SDS011;69074;45.164;9.704;2023-06-14T12:51:21;23.1;;;20.7;;
79592;SDS011;69074;45.164;9.704;2023-06-14T12:53:46;23.1;;;20.7;;
79592;SDS011;69074;45.164;9.704;2023-06-14T12:56:11;23.1;;;20.7;;
79592;SDS011;69074;45.164;9.704;2023-06-14T12:58:36;23.1;;;20.7;;
79592;SDS011;69074;45.164;9.704;2023-06-14T13:01:01;23.1;;;20.7;;
79592;SDS011;69074;45.164;9.704;2023-06-14T13:03:26;23.1;;;20.7;;
79592;SDS011;69074;45.164;9.704;2023-06-14T13:05:51;23.1;;;20.7;;
79592;SDS011;69074;45.164;9.704;2023-06-14T13:08:16;15.0;;;11.3;;
79592;SDS011;69074;45.164;9.704;2023-06-14T13:10:41;15.0;;;11.3;;
79592;SDS011;69074;45.164;9.704;2023-06-14T13:13:06;15.0;;;11.3;;
79592;SDS011;69074;45.164;9.704;2023-06-14T13:15:31;15.0;;;11.3;;
79592;SDS011;69074;45.164;9.704;2023-06-14T13:17:56;15.0;;;11.3;;
79592;SDS011;69074;45.164;9.704;2023-06-14T13:20:21;15.0;;;11.3;;
79592;SDS011;69074;45.164;9.704;2023-06-14T13:22:46;10.6;;;9.3;;
79592;SDS011;69074;45.164;9.704;2023-06-14T13:25:11;10.6;;;9.3;;
79592;SDS011;69074;45.164;9.704;2023-06-14T13:27:36;10.6;;;9.3;;
79592;SDS011;69074;45.164;9.704;2023-06-14T13:30:01;10.6;;;9.3;;
79592;SDS011;69074;45.164;9.704;2023-06-14T13:32:26;10.6;;;9.3;;
79592;SDS011;69074;45.164;9.704;2023-06-14T13:34:51;10.6;;;9.3;;
79592;SDS011;69074;45.164;9.704;2023-06-14T13:37:16;10.5;;;9.4;;
79592;SDS011;69074;45.164;9.704;2023-06-14T13:39:41;10.5;;;9.4;;
79592;SDS011;69074;45.164;9.704;2023-06-14T13:42:07;10.5;;;9.4;;
79592;SDS011;69074;45.164;9.704;2023-06-14T13:44:31;10.5;;;9.4;;
79592;SDS011;69074;45.164;9.704;2023-06-14T13:46:56;10.5;;;9.4;;
79592;SDS011;69074;45.164;9.704;2023-06-14T13:49:21;10.5;;;9.4;;
79592;SDS011;69074;45.164;9.704;2023-06-14T13:51:46;8.3;;;7.5;;
79592;SDS011;69074;45.164;9.704;2023-06-14T13:54:12;8.3;;;7.5;;
79592;SDS011;69074;45.164;9.704;2023-06-14T13:56:36;8.3;;;7.5;;
79592;SDS011;69074;45.164;9.704;2023-06-14T13:59:01;8.3;;;7.5;;
79592;SDS011;69074;45.164;9.704;2023-06-14T14:01:26;8.3;;;7.5;;
79592;SDS011;69074;45.164;9.704;2023-06-14T14:03:51;8.3;;;7.5;;
79592;SDS011;69074;45.164;9.704;2023-06-14T14:06:16;8.3;;;7.5;;
79592;SDS011;69074;45.164;9.704;2023-06-14T14:08:41;6.9;;;6.2;;
79592;SDS011;69074;45.164;9.704;2023-06-14T14:11:06;6.9;;;6.2;;
79592;SDS011;69074;45.164;9.704;2023-06-14T14:13:31;6.9;;;6.2;;
79592;SDS011;69074;45.164;9.704;2023-06-14T14:15:56;6.9;;;6.2;;
79592;SDS011;69074;45.164;9.704;2023-06-14T14:18:21;6.9;;;6.2;;
79592;SDS011;69074;45.164;9.704;2023-06-14T14:20:47;6.9;;;6.2;;
79592;SDS011;69074;45.164;9.704;2023-06-14T14:23:11;8.1;;;7.2;;
79592;SDS011;69074;45.164;9.704;2023-06-14T14:25:37;8.1;;;7.2;;
79592;SDS011;69074;45.164;9.704;2023-06-14T14:28:02;8.1;;;7.2;;
79592;SDS011;69074;45.164;9.704;2023-06-14T14:30:27;8.1;;;7.2;;
79592;SDS011;69074;45.164;9.704;2023-06-14T14:32:53;8.1;;;7.2;;
79592;SDS011;69074;45.164;9.704;2023-06-14T14:35:17;8.1;;;7.2;;
79592;SDS011;69074;45.164;9.704;2023-06-14T14:37:42;7.5;;;6.2;;
79592;SDS011;69074;45.164;9.704;2023-06-14T14:40:07;7.5;;;6.2;;
79592;SDS011;69074;45.164;9.704;2023-06-14T14:42:32;7.5;;;6.2;;
79592;SDS011;69074;45.164;9.704;2023-06-14T14:44:57;7.5;;;6.2;;